Finita R — E.C.O.E — position and weather

sailwx.info

Track history (hours):
 
Tides and Currents Weather Stations Pressure Air Temp Water Temp Dewpoint Dewpoint Depression Visibility Wind Speed Wind Dir Waves Ship Positions

Finita R

Last reported at 2017-Nov-19 17:19 UTC. Time now 2017-Nov-22 02:03 UTC.
Position N 36°11' W 005°25'.

Length 100 m; draft 7.6 m.

Type: Cargo ship. MMSI: 225388000.

Date/timePositionNaut miles runAvg speedWind from/ knotsBaromVisibWave heightAir tempDewpointWater temp
2017-Nov-19 17:19N 36°11' W 005°25'  
2017-Nov-16 09:07N 36°07' W 005°24'210.9
2017-Nov-16 08:56N 36°05' W 005°23'2 2.8
2017-Nov-16 08:23N 36°04' W 005°21'0 0.9
2017-Nov-16 07:58N 36°04' W 005°22'0 0.6
2017-Nov-16 07:30N 36°04' W 005°22'0 0.2
2017-Nov-16 07:00N 36°04' W 005°22'1 1.4
2017-Nov-16 06:30N 36°04' W 005°23'510.0
2017-Nov-16 06:00N 35°59' W 005°24'612.3
2017-Nov-16 05:30N 35°57' W 005°32'213 9.9
2017-Nov-15 07:56N 37°13' W 009°40'511.0
2017-Nov-15 07:30N 37°17' W 009°41'611.0
2017-Nov-15 07:00N 37°23' W 009°43'511.0
2017-Nov-15 06:30N 37°28' W 009°44'510.9
2017-Nov-15 06:00N 37°33' W 009°45'611.3
2017-Nov-15 05:30N 37°39' W 009°46'611.3
2017-Nov-15 05:00N 37°44' W 009°48'611.3
2017-Nov-15 04:27N 37°50' W 009°51'510.9
2017-Nov-15 04:00N 37°55' W 009°52'611.2
2017-Nov-15 03:30N 38°01' W 009°53'611.1
2017-Nov-15 02:59N 38°06' W 009°55'510.9
2017-Nov-15 02:30N 38°11' W 009°56'711.2
2017-Nov-15 01:52N 38°18' W 009°58'411.2
2017-Nov-15 01:30N 38°22' W 009°59'611.2
2017-Nov-15 01:00N 38°28' W 010°01'510.9
2017-Nov-15 00:30N 38°33' W 010°02'511.0
2017-Nov-15 00:00N 38°38' W 010°04'611.1
2017-Nov-14 23:30N 38°44' W 010°05'510.8
2017-Nov-14 23:00N 38°49' W 010°05'510.8
2017-Nov-14 22:30N 38°55' W 010°04'510.6
2017-Nov-14 22:00N 38°60' W 010°02'510.7
2017-Nov-14 21:30N 39°05' W 010°00'510.8
2017-Nov-14 21:00N 39°10' W 009°58'510.8
2017-Nov-14 20:30N 39°16' W 009°57'610.8
2017-Nov-14 19:59N 39°21' W 009°55'  
2017-Nov-12 13:27N 39°35' W 009°45'610.2
2017-Nov-12 12:53N 39°30' W 009°47'410.1
2017-Nov-12 12:30N 39°26' W 009°48'510.1
2017-Nov-12 12:00N 39°21' W 009°48'510.2
2017-Nov-12 11:30N 39°16' W 009°48'510.3
2017-Nov-12 11:00N 39°11' W 009°49'510.1
2017-Nov-12 10:30N 39°06' W 009°49'5 9.9
2017-Nov-12 10:00N 39°01' W 009°50'510.0
2017-Nov-12 09:30N 38°56' W 009°50'5 9.8
2017-Nov-12 09:00N 38°51' W 009°50'5 9.8
2017-Nov-12 08:30N 38°46' W 009°51'5 9.6
2017-Nov-12 08:00N 38°41' W 009°51'5 9.2
2017-Nov-12 07:30N 38°36' W 009°50'4 8.9
2017-Nov-12 07:00N 38°32' W 009°50'5 9.1
2017-Nov-12 06:30N 38°27' W 009°51'5 9.1
2017-Nov-12 06:00N 38°23' W 009°51'5 9.0
2017-Nov-12 05:30N 38°18' W 009°51'5 9.3
2017-Nov-12 05:00N 38°14' W 009°51'5 9.3
2017-Nov-12 04:30N 38°09' W 009°52'5 9.2
2017-Nov-12 04:00N 38°05' W 009°52'5 9.3
2017-Nov-12 03:30N 37°60' W 009°52'510.0
2017-Nov-12 03:00N 37°55' W 009°52'510.0
2017-Nov-12 02:29N 37°50' W 009°52'510.0
2017-Nov-12 02:00N 37°45' W 009°52'5 9.9
2017-Nov-12 01:30N 37°40' W 009°52'510.4
2017-Nov-12 01:00N 37°35' W 009°52'510.4
2017-Nov-12 00:30N 37°30' W 009°52'510.1
2017-Nov-12 00:00N 37°25' W 009°52'710.4
2017-Nov-11 23:20N 37°17' W 009°52'410.6
2017-Nov-11 22:59N 37°14' W 009°52'510.4
2017-Nov-11 22:29N 37°09' W 009°52'510.3
2017-Nov-11 22:00N 37°04' W 009°52'510.5
2017-Nov-11 21:30N 36°58' W 009°52'510.5
2017-Nov-11 21:00N 36°53' W 009°52'5 9.9
2017-Nov-11 20:30N 36°48' W 009°51'510.5
2017-Nov-11 20:00N 36°44' W 009°47'510.4
2017-Nov-11 19:30N 36°39' W 009°44'510.4
2017-Nov-11 19:00N 36°35' W 009°41'510.5
2017-Nov-11 18:30N 36°30' W 009°37'610.4
2017-Nov-11 17:58N 36°25' W 009°34'510.6
2017-Nov-11 17:30N 36°21' W 009°31'510.5
2017-Nov-11 17:00N 36°17' W 009°27'510.3
2017-Nov-11 16:29N 36°12' W 009°24'510.8
2017-Nov-11 16:00N 36°08' W 009°21'610.7
2017-Nov-11 15:28N 36°03' W 009°17'  
Track history (hours):
 
Tides and Currents Weather Stations Pressure Air Temp Water Temp Dewpoint Dewpoint Depression Visibility Wind Speed Wind Dir Waves Ship Positions

Finita R

Last reported at 2017-Nov-19 17:19 UTC. Time now 2017-Nov-22 02:03 UTC.
Position N 36°11' W 005°25'.

Length 100 m; draft 7.6 m.

Type: Cargo ship. MMSI: 225388000.

Date/timePositionNaut miles runAvg speedWind from/ knotsBaromVisibWave heightAir tempDewpointWater temp
2017-Nov-19 17:19N 36°11' W 005°25'  
2017-Nov-16 09:07N 36°07' W 005°24'210.9
2017-Nov-16 08:56N 36°05' W 005°23'2 2.8
2017-Nov-16 08:23N 36°04' W 005°21'0 0.9
2017-Nov-16 07:58N 36°04' W 005°22'0 0.6
2017-Nov-16 07:30N 36°04' W 005°22'0 0.2
2017-Nov-16 07:00N 36°04' W 005°22'1 1.4
2017-Nov-16 06:30N 36°04' W 005°23'510.0
2017-Nov-16 06:00N 35°59' W 005°24'612.3
2017-Nov-16 05:30N 35°57' W 005°32'213 9.9
2017-Nov-15 07:56N 37°13' W 009°40'511.0
2017-Nov-15 07:30N 37°17' W 009°41'611.0
2017-Nov-15 07:00N 37°23' W 009°43'511.0
2017-Nov-15 06:30N 37°28' W 009°44'510.9
2017-Nov-15 06:00N 37°33' W 009°45'611.3
2017-Nov-15 05:30N 37°39' W 009°46'611.3
2017-Nov-15 05:00N 37°44' W 009°48'611.3
2017-Nov-15 04:27N 37°50' W 009°51'510.9
2017-Nov-15 04:00N 37°55' W 009°52'611.2
2017-Nov-15 03:30N 38°01' W 009°53'611.1
2017-Nov-15 02:59N 38°06' W 009°55'510.9
2017-Nov-15 02:30N 38°11' W 009°56'711.2
2017-Nov-15 01:52N 38°18' W 009°58'411.2
2017-Nov-15 01:30N 38°22' W 009°59'611.2
2017-Nov-15 01:00N 38°28' W 010°01'510.9
2017-Nov-15 00:30N 38°33' W 010°02'511.0
2017-Nov-15 00:00N 38°38' W 010°04'611.1
2017-Nov-14 23:30N 38°44' W 010°05'510.8
2017-Nov-14 23:00N 38°49' W 010°05'510.8
2017-Nov-14 22:30N 38°55' W 010°04'510.6
2017-Nov-14 22:00N 38°60' W 010°02'510.7
2017-Nov-14 21:30N 39°05' W 010°00'510.8
2017-Nov-14 21:00N 39°10' W 009°58'510.8
2017-Nov-14 20:30N 39°16' W 009°57'610.8
2017-Nov-14 19:59N 39°21' W 009°55'  
2017-Nov-12 13:27N 39°35' W 009°45'610.2
2017-Nov-12 12:53N 39°30' W 009°47'410.1
2017-Nov-12 12:30N 39°26' W 009°48'510.1
2017-Nov-12 12:00N 39°21' W 009°48'510.2
2017-Nov-12 11:30N 39°16' W 009°48'510.3
2017-Nov-12 11:00N 39°11' W 009°49'510.1
2017-Nov-12 10:30N 39°06' W 009°49'5 9.9
2017-Nov-12 10:00N 39°01' W 009°50'510.0
2017-Nov-12 09:30N 38°56' W 009°50'5 9.8
2017-Nov-12 09:00N 38°51' W 009°50'5 9.8
2017-Nov-12 08:30N 38°46' W 009°51'5 9.6
2017-Nov-12 08:00N 38°41' W 009°51'5 9.2
2017-Nov-12 07:30N 38°36' W 009°50'4 8.9
2017-Nov-12 07:00N 38°32' W 009°50'5 9.1
2017-Nov-12 06:30N 38°27' W 009°51'5 9.1
2017-Nov-12 06:00N 38°23' W 009°51'5 9.0
2017-Nov-12 05:30N 38°18' W 009°51'5 9.3
2017-Nov-12 05:00N 38°14' W 009°51'5 9.3
2017-Nov-12 04:30N 38°09' W 009°52'5 9.2
2017-Nov-12 04:00N 38°05' W 009°52'5 9.3
2017-Nov-12 03:30N 37°60' W 009°52'510.0
2017-Nov-12 03:00N 37°55' W 009°52'510.0
2017-Nov-12 02:29N 37°50' W 009°52'510.0
2017-Nov-12 02:00N 37°45' W 009°52'5 9.9
2017-Nov-12 01:30N 37°40' W 009°52'510.4
2017-Nov-12 01:00N 37°35' W 009°52'510.4
2017-Nov-12 00:30N 37°30' W 009°52'510.1
2017-Nov-12 00:00N 37°25' W 009°52'710.4
2017-Nov-11 23:20N 37°17' W 009°52'410.6
2017-Nov-11 22:59N 37°14' W 009°52'510.4
2017-Nov-11 22:29N 37°09' W 009°52'510.3
2017-Nov-11 22:00N 37°04' W 009°52'510.5
2017-Nov-11 21:30N 36°58' W 009°52'510.5
2017-Nov-11 21:00N 36°53' W 009°52'5 9.9
2017-Nov-11 20:30N 36°48' W 009°51'510.5
2017-Nov-11 20:00N 36°44' W 009°47'510.4
2017-Nov-11 19:30N 36°39' W 009°44'510.4
2017-Nov-11 19:00N 36°35' W 009°41'510.5
2017-Nov-11 18:30N 36°30' W 009°37'610.4
2017-Nov-11 17:58N 36°25' W 009°34'510.6
2017-Nov-11 17:30N 36°21' W 009°31'510.5
2017-Nov-11 17:00N 36°17' W 009°27'510.3
2017-Nov-11 16:29N 36°12' W 009°24'510.8
2017-Nov-11 16:00N 36°08' W 009°21'610.7
2017-Nov-11 15:28N 36°03' W 009°17'  

Dump ship's entire track history